createdAt,value
2019-05-22T00:00:43.011Z,14.20
2019-05-22T00:03:13.988Z,14.20
2019-05-22T00:05:44.164Z,14.00
2019-05-22T00:08:13.025Z,13.90
2019-05-22T00:10:43.689Z,13.90
2019-05-22T00:13:18.808Z,13.90
2019-05-22T00:15:49.890Z,13.90
2019-05-22T00:18:19.680Z,13.90
2019-05-22T00:20:49.354Z,13.90
2019-05-22T00:23:18.855Z,14.00
2019-05-22T00:25:48.622Z,13.90
2019-05-22T00:28:18.191Z,13.80
2019-05-22T00:30:49.232Z,13.80
2019-05-22T00:33:18.356Z,13.80
2019-05-22T00:35:47.759Z,13.90
2019-05-22T00:38:18.224Z,13.90
2019-05-22T00:40:51.714Z,13.90
2019-05-22T00:43:22.168Z,13.80
2019-05-22T00:45:52.532Z,13.80
2019-05-22T00:48:23.983Z,13.70
2019-05-22T00:50:57.422Z,13.60
2019-05-22T00:53:39.472Z,13.60
2019-05-22T00:56:14.001Z,13.60
2019-05-22T00:58:44.739Z,13.70
2019-05-22T01:01:33.308Z,13.70
2019-05-22T01:04:04.547Z,13.80
2019-05-22T01:06:35.672Z,13.90
2019-05-22T01:09:09.128Z,13.90
2019-05-22T01:11:39.805Z,13.90
2019-05-22T01:14:09.671Z,13.90
2019-05-22T01:16:40.011Z,13.80
2019-05-22T01:19:10.983Z,13.70
2019-05-22T01:21:40.428Z,13.70
2019-05-22T01:24:11.031Z,13.70
2019-05-22T01:26:41.877Z,13.70
2019-05-22T01:29:11.657Z,13.70
2019-05-22T01:31:42.254Z,13.70
2019-05-22T01:34:12.928Z,13.70
2019-05-22T01:36:49.986Z,13.60
2019-05-22T01:39:39.817Z,13.60
2019-05-22T01:42:12.591Z,13.60
2019-05-22T01:44:41.894Z,13.50
2019-05-22T01:47:13.673Z,13.50
2019-05-22T01:49:47.128Z,13.50
2019-05-22T01:52:17.583Z,13.30
2019-05-22T01:54:46.988Z,13.30
2019-05-22T01:57:16.172Z,13.30
2019-05-22T01:59:45.325Z,13.30
2019-05-22T02:02:14.600Z,13.20
2019-05-22T02:04:53.204Z,13.20
2019-05-22T02:07:22.257Z,13.20
2019-05-22T02:09:52.422Z,13.20
2019-05-22T02:12:40.744Z,13.30
2019-05-22T02:15:11.958Z,13.50
2019-05-22T02:17:41.923Z,13.60
2019-05-22T02:20:11.444Z,13.70
2019-05-22T02:22:40.994Z,13.80
2019-05-22T02:25:12.130Z,13.80
2019-05-22T02:27:41.930Z,13.80
2019-05-22T02:30:10.997Z,13.70
2019-05-22T02:32:41.203Z,13.70
2019-05-22T02:35:11.386Z,13.70
2019-05-22T02:37:41.864Z,13.80
2019-05-22T02:40:32.988Z,13.80
2019-05-22T02:43:02.361Z,13.90
2019-05-22T02:45:31.731Z,13.90
2019-05-22T02:48:02.585Z,13.90
2019-05-22T02:50:34.543Z,13.90
2019-05-22T02:53:07.844Z,13.80
2019-05-22T02:55:38.413Z,13.70
2019-05-22T02:58:07.877Z,13.70
2019-05-22T03:00:48.671Z,13.70
2019-05-22T03:03:17.711Z,13.60
2019-05-22T03:05:46.976Z,13.50
2019-05-22T03:08:17.038Z,13.50
2019-05-22T03:10:46.727Z,13.40
2019-05-22T03:13:16.407Z,13.40
2019-05-22T03:15:45.617Z,13.50
2019-05-22T03:18:15.195Z,13.40
2019-05-22T03:20:44.659Z,13.30
2019-05-22T03:23:36.725Z,13.30
2019-05-22T03:26:08.243Z,13.30
2019-05-22T03:28:37.608Z,13.40
2019-05-22T03:31:07.540Z,13.50
2019-05-22T03:33:36.896Z,13.50
2019-05-22T03:36:15.251Z,13.50
2019-05-22T03:38:45.416Z,13.40
2019-05-22T03:41:15.579Z,13.40
2019-05-22T03:43:46.534Z,13.50
2019-05-22T03:46:37.354Z,13.50
2019-05-22T03:49:06.345Z,13.60
2019-05-22T03:51:35.227Z,13.70
2019-05-22T03:54:05.606Z,13.70
2019-05-22T03:56:37.698Z,13.70
2019-05-22T03:59:07.474Z,13.60
2019-05-22T04:01:36.726Z,13.70
2019-05-22T04:04:07.670Z,13.70
2019-05-22T04:06:39.395Z,13.50
2019-05-22T04:09:20.625Z,13.50
2019-05-22T04:11:50.070Z,13.60
2019-05-22T04:14:20.698Z,13.60
2019-05-22T04:16:52.148Z,13.70
2019-05-22T04:19:21.565Z,13.70
2019-05-22T04:21:50.633Z,13.90
2019-05-22T04:24:19.880Z,14.10
2019-05-22T04:26:49.152Z,14.20
2019-05-22T04:29:18.709Z,14.30
2019-05-22T04:31:52.309Z,14.30
2019-05-22T04:34:21.904Z,14.30
2019-05-22T04:36:51.038Z,14.20
2019-05-22T04:39:22.374Z,14.20
2019-05-22T04:41:51.543Z,14.20
2019-05-22T04:44:20.391Z,14.10
2019-05-22T04:46:49.902Z,14.10
2019-05-22T04:49:19.767Z,14.10
2019-05-22T04:51:49.135Z,14.00
2019-05-22T04:54:18.045Z,14.00
2019-05-22T04:56:47.534Z,14.10
2019-05-22T04:59:16.541Z,14.30
2019-05-22T05:01:46.364Z,14.40
2019-05-22T05:04:16.243Z,14.40
2019-05-22T05:06:45.617Z,14.40
2019-05-22T05:09:15.100Z,14.40
2019-05-22T05:11:44.649Z,14.40
2019-05-22T05:14:14.011Z,14.40
2019-05-22T05:16:43.857Z,14.40
2019-05-22T05:19:13.121Z,14.50
2019-05-22T05:21:42.077Z,14.60
2019-05-22T05:24:11.107Z,14.70
2019-05-22T05:26:40.865Z,14.80
2019-05-22T05:29:27.523Z,14.90
2019-05-22T05:31:58.170Z,15.10
2019-05-22T05:34:30.467Z,15.10
2019-05-22T05:37:02.179Z,15.10
2019-05-22T05:39:40.343Z,15.10
2019-05-22T05:42:09.294Z,15.10
2019-05-22T05:44:38.464Z,15.10
2019-05-22T05:47:08.224Z,15.10
2019-05-22T05:49:37.840Z,15.20
2019-05-22T05:52:08.410Z,15.20
2019-05-22T05:54:38.034Z,15.30
2019-05-22T05:57:36.574Z,15.40
2019-05-22T06:00:09.205Z,15.50
2019-05-22T06:02:38.271Z,15.60
2019-05-22T06:05:08.511Z,15.70
2019-05-22T06:07:38.289Z,15.70
2019-05-22T06:10:22.461Z,15.90
2019-05-22T06:12:51.313Z,16.00
2019-05-22T06:15:20.779Z,16.20
2019-05-22T06:18:27.505Z,16.40
2019-05-22T06:21:03.693Z,16.60
2019-05-22T06:23:38.899Z,16.50
2019-05-22T06:26:10.088Z,16.60
2019-05-22T06:28:40.506Z,16.70
2019-05-22T06:31:23.165Z,16.90
2019-05-22T06:33:52.763Z,17.00
2019-05-22T06:36:22.626Z,17.10
2019-05-22T06:38:55.436Z,17.10
2019-05-22T06:41:27.442Z,17.00
2019-05-22T06:44:26.865Z,16.90
2019-05-22T06:46:55.749Z,16.90
2019-05-22T06:49:38.577Z,17.00
2019-05-22T06:52:08.566Z,17.10
2019-05-22T06:54:38.721Z,17.10
2019-05-22T06:57:13.990Z,17.00
2019-05-22T06:59:43.712Z,16.80
2019-05-22T07:02:14.088Z,17.00
2019-05-22T07:04:43.882Z,17.10
2019-05-22T07:07:14.344Z,17.40
2019-05-22T07:09:45.112Z,17.70
2019-05-22T07:12:15.757Z,18.10
2019-05-22T07:15:07.163Z,18.60
2019-05-22T07:17:37.791Z,18.80
2019-05-22T07:20:07.657Z,19.30
2019-05-22T07:22:37.212Z,19.80
2019-05-22T07:25:08.730Z,20.20
2019-05-22T07:27:38.610Z,20.40
2019-05-22T07:30:09.257Z,20.50
2019-05-22T07:32:44.644Z,20.80
2019-05-22T07:35:13.702Z,21.20
2019-05-22T07:37:45.325Z,21.10
2019-05-22T07:40:14.867Z,20.90
2019-05-22T07:42:44.115Z,20.60
2019-05-22T07:45:13.575Z,20.30
2019-05-22T07:47:42.708Z,20.10
2019-05-22T07:50:12.956Z,20.10
2019-05-22T07:52:42.917Z,20.10
2019-05-22T07:55:12.428Z,20.40
2019-05-22T07:57:42.549Z,20.80
2019-05-22T08:00:12.106Z,21.60
2019-05-22T08:02:46.869Z,22.10
2019-05-22T08:05:17.747Z,22.30
2019-05-22T08:07:46.975Z,22.90
2019-05-22T08:10:17.792Z,24.20
2019-05-22T08:12:47.456Z,25.20
2019-05-22T08:15:18.088Z,25.60
2019-05-22T08:17:47.278Z,26.20
2019-05-22T08:20:16.446Z,26.20
2019-05-22T08:22:47.719Z,26.40
2019-05-22T08:25:17.567Z,25.80
2019-05-22T08:27:47.599Z,25.40
2019-05-22T08:30:17.065Z,24.70
2019-05-22T08:32:46.096Z,24.30
2019-05-22T08:35:15.240Z,24.10
2019-05-22T08:37:45.327Z,24.10
2019-05-22T08:40:16.394Z,24.40
2019-05-22T08:42:46.246Z,24.20
2019-05-22T08:45:18.111Z,24.10
2019-05-22T08:47:47.044Z,24.20
2019-05-22T08:50:19.260Z,23.90
2019-05-22T08:52:49.869Z,25.90
2019-05-22T08:55:19.252Z,28.70
2019-05-22T08:57:48.575Z,30.30
2019-05-22T09:00:21.105Z,31.40
2019-05-22T09:02:51.153Z,30.90
2019-05-22T09:05:21.503Z,29.20
2019-05-22T09:07:50.710Z,28.50
2019-05-22T09:10:20.685Z,28.20
2019-05-22T09:12:49.541Z,27.70
2019-05-22T09:15:18.449Z,29.10
2019-05-22T09:17:47.585Z,32.00
2019-05-22T09:20:17.260Z,33.80
2019-05-22T09:22:47.200Z,35.30
2019-05-22T09:25:16.722Z,36.00
2019-05-22T09:27:45.780Z,35.70
2019-05-22T09:30:15.426Z,33.80
2019-05-22T09:32:47.432Z,31.70
2019-05-22T09:35:15.784Z,30.70
2019-05-22T09:37:44.688Z,29.90
2019-05-22T09:40:13.753Z,29.30
2019-05-22T09:42:42.928Z,29.50
2019-05-22T09:45:12.205Z,32.30
2019-05-22T09:47:42.161Z,33.50
2019-05-22T09:50:12.437Z,32.30
2019-05-22T09:52:56.820Z,31.10
2019-05-22T09:55:14.999Z,30.00
2019-05-22T09:57:43.980Z,29.00
2019-05-22T10:00:14.762Z,29.40
2019-05-22T10:02:43.816Z,30.50
2019-05-22T10:05:14.621Z,30.60
2019-05-22T10:07:57.664Z,32.50
2019-05-22T10:10:15.236Z,33.70
2019-05-22T10:12:44.326Z,32.60
2019-05-22T10:15:13.963Z,32.90
2019-05-22T10:17:45.759Z,31.20
2019-05-22T10:20:15.216Z,29.70
2019-05-22T10:22:44.313Z,30.10
2019-05-22T10:25:16.607Z,31.00
2019-05-22T10:27:46.598Z,32.50
2019-05-22T10:30:18.575Z,32.60
2019-05-22T10:32:47.629Z,31.70
2019-05-22T10:35:17.296Z,29.70
2019-05-22T10:37:46.346Z,28.70
2019-05-22T10:40:15.914Z,28.00
2019-05-22T10:42:45.445Z,27.80
2019-05-22T10:45:14.807Z,27.70
2019-05-22T10:47:44.144Z,27.40
2019-05-22T10:50:14.112Z,26.70
2019-05-22T10:52:43.020Z,26.80
2019-05-22T10:55:13.210Z,26.40
2019-05-22T10:57:43.993Z,25.90
2019-05-22T11:00:16.144Z,25.30
2019-05-22T11:02:45.107Z,24.80
2019-05-22T11:05:14.050Z,24.20
2019-05-22T11:07:43.662Z,24.10
2019-05-22T11:10:13.930Z,25.00
2019-05-22T11:12:42.793Z,25.30
2019-05-22T11:15:12.201Z,25.50
2019-05-22T11:17:41.464Z,25.00
2019-05-22T11:20:12.444Z,24.50
2019-05-22T11:22:41.731Z,24.10
2019-05-22T11:25:13.259Z,23.80
2019-05-22T11:27:42.127Z,23.30
2019-05-22T11:30:12.718Z,22.50
2019-05-22T11:32:42.192Z,22.20
2019-05-22T11:35:12.561Z,22.50
2019-05-22T11:37:41.986Z,23.10
2019-05-22T11:40:11.859Z,23.80
2019-05-22T11:42:41.620Z,23.90
2019-05-22T11:45:13.371Z,24.20
2019-05-22T11:47:43.152Z,24.10
2019-05-22T11:50:13.483Z,23.80
2019-05-22T11:52:42.834Z,23.50
2019-05-22T11:55:13.585Z,23.60
2019-05-22T11:57:43.980Z,23.60
2019-05-22T12:00:13.882Z,23.90
2019-05-22T12:02:45.331Z,24.00
2019-05-22T12:05:15.482Z,24.00
2019-05-22T12:07:46.410Z,23.80
2019-05-22T12:10:16.188Z,24.10
2019-05-22T12:12:45.551Z,24.10
2019-05-22T12:15:15.261Z,24.00
2019-05-22T12:17:45.141Z,24.00
2019-05-22T12:20:14.817Z,23.80
2019-05-22T12:22:43.989Z,23.70
2019-05-22T12:25:13.777Z,23.60
2019-05-22T12:27:42.752Z,23.70
2019-05-22T12:30:14.161Z,24.00
2019-05-22T12:32:43.720Z,23.80
2019-05-22T12:35:14.582Z,23.90
2019-05-22T12:37:44.029Z,24.10
2019-05-22T12:40:15.829Z,23.80
2019-05-22T12:42:45.307Z,23.50
2019-05-22T12:45:15.934Z,23.20
2019-05-22T12:47:45.643Z,23.30
2019-05-22T12:50:17.286Z,23.60
2019-05-22T12:52:50.902Z,23.80
2019-05-22T12:55:21.064Z,23.80
2019-05-22T12:57:50.932Z,23.90
2019-05-22T13:00:24.306Z,23.90
2019-05-22T13:02:54.363Z,23.70
2019-05-22T13:05:24.029Z,23.30
2019-05-22T13:07:54.549Z,22.70
2019-05-22T13:10:26.171Z,22.10
2019-05-22T13:12:55.534Z,21.40
2019-05-22T13:15:25.382Z,20.50
2019-05-22T13:17:55.842Z,19.80
2019-05-22T13:20:41.797Z,19.40
2019-05-22T13:22:58.857Z,19.40
2019-05-22T13:25:34.146Z,19.70
2019-05-22T13:28:04.330Z,20.20
2019-05-22T13:30:35.716Z,20.60
2019-05-22T13:33:06.090Z,20.90
2019-05-22T13:35:35.157Z,21.20
2019-05-22T13:38:04.833Z,21.30
2019-05-22T13:40:34.789Z,21.20
2019-05-22T13:43:04.591Z,21.10
2019-05-22T13:45:35.789Z,21.00
2019-05-22T13:48:04.778Z,20.90
2019-05-22T13:50:33.781Z,20.80
2019-05-22T13:53:04.855Z,21.00
2019-05-22T13:55:34.014Z,21.40
2019-05-22T13:58:05.930Z,21.90
2019-05-22T14:00:36.866Z,22.40
2019-05-22T14:03:06.324Z,22.40
2019-05-22T14:05:36.647Z,22.20
2019-05-22T14:08:06.546Z,21.90
2019-05-22T14:10:35.359Z,21.80
2019-05-22T14:13:04.985Z,21.70
2019-05-22T14:15:48.753Z,21.70
2019-05-22T14:18:04.446Z,21.60
2019-05-22T14:20:33.605Z,21.60
2019-05-22T14:23:03.032Z,21.70
2019-05-22T14:25:32.242Z,22.00
2019-05-22T14:28:02.173Z,22.20
2019-05-22T14:30:31.392Z,22.10
2019-05-22T14:33:04.436Z,21.90
2019-05-22T14:35:46.983Z,21.70
2019-05-22T14:38:05.518Z,21.50
2019-05-22T14:40:34.985Z,21.50
2019-05-22T14:43:04.489Z,21.70
2019-05-22T14:45:33.833Z,21.70
2019-05-22T14:48:03.222Z,21.70
2019-05-22T14:50:33.303Z,21.80
2019-05-22T14:53:03.091Z,21.90
2019-05-22T14:55:34.871Z,22.00
2019-05-22T14:58:05.653Z,22.10
2019-05-22T15:00:35.416Z,22.10
2019-05-22T15:03:05.183Z,22.00
2019-05-22T15:05:34.211Z,22.10
2019-05-22T15:08:04.070Z,22.00
2019-05-22T15:10:33.230Z,22.00
2019-05-22T15:13:02.741Z,22.00
2019-05-22T15:15:32.409Z,22.00
2019-05-22T15:18:01.276Z,22.00
2019-05-22T15:20:34.300Z,21.80
2019-05-22T15:23:03.366Z,21.60
2019-05-22T15:25:32.311Z,21.60
2019-05-22T15:28:02.215Z,21.50
2019-05-22T15:30:31.079Z,21.40
2019-05-22T15:32:59.940Z,21.30
2019-05-22T15:35:29.380Z,21.30
2019-05-22T15:37:59.616Z,21.40
2019-05-22T15:40:29.676Z,21.40
2019-05-22T15:42:58.927Z,21.30
2019-05-22T15:45:29.386Z,21.10
2019-05-22T15:48:02.822Z,20.80
2019-05-22T15:50:35.235Z,20.60
2019-05-22T15:53:10.228Z,20.40
2019-05-22T15:55:39.272Z,20.30
2019-05-22T15:58:08.963Z,20.20
2019-05-22T16:00:40.714Z,20.10
2019-05-22T16:03:12.654Z,20.00
2019-05-22T16:05:43.673Z,19.90
2019-05-22T16:08:14.991Z,19.90
2019-05-22T16:10:46.740Z,19.90
2019-05-22T16:13:19.456Z,19.90
2019-05-22T16:15:50.526Z,20.00
2019-05-22T16:18:22.370Z,20.00
2019-05-22T16:20:52.272Z,19.90
2019-05-22T16:23:22.363Z,19.90
2019-05-22T16:25:53.021Z,19.90
2019-05-22T16:28:23.863Z,20.00
2019-05-22T16:30:53.738Z,20.20
2019-05-22T16:33:25.045Z,20.20
2019-05-22T16:35:54.563Z,20.30
2019-05-22T16:38:25.630Z,20.30
2019-05-22T16:40:54.679Z,20.20
2019-05-22T16:43:24.181Z,20.10
2019-05-22T16:45:53.658Z,20.00
2019-05-22T16:48:29.040Z,20.00
2019-05-22T16:50:53.893Z,20.00
2019-05-22T16:53:25.060Z,20.00
2019-05-22T16:55:56.399Z,20.00
2019-05-22T16:58:25.641Z,19.90
2019-05-22T17:00:56.968Z,19.90
2019-05-22T17:03:27.731Z,20.00
2019-05-22T17:05:58.067Z,20.00
2019-05-22T17:08:29.095Z,20.10
2019-05-22T17:11:01.750Z,20.10
2019-05-22T17:13:32.274Z,20.00
2019-05-22T17:16:01.925Z,20.00
2019-05-22T17:18:45.997Z,20.00
2019-05-22T17:21:04.567Z,20.00
2019-05-22T17:23:33.560Z,19.90
2019-05-22T17:26:04.707Z,19.70
2019-05-22T17:28:34.533Z,19.60
2019-05-22T17:31:03.400Z,19.40
2019-05-22T17:33:33.760Z,19.20
2019-05-22T17:36:05.792Z,19.00
2019-05-22T17:38:35.199Z,18.70
2019-05-22T17:41:04.817Z,18.50
2019-05-22T17:43:34.346Z,18.30
2019-05-22T17:46:04.244Z,18.20
2019-05-22T17:48:34.273Z,18.20
2019-05-22T17:51:04.103Z,18.20
2019-05-22T17:53:33.659Z,18.20
2019-05-22T17:56:02.844Z,18.20
2019-05-22T17:58:31.882Z,18.10
2019-05-22T18:01:00.741Z,18.00
2019-05-22T18:03:29.911Z,17.90
2019-05-22T18:05:58.962Z,17.90
2019-05-22T18:08:28.593Z,17.80
2019-05-22T18:10:59.056Z,17.70
2019-05-22T18:13:28.640Z,17.60
2019-05-22T18:15:57.806Z,17.50
2019-05-22T18:18:27.118Z,17.40
2019-05-22T18:20:56.998Z,17.20
2019-05-22T18:23:26.067Z,17.20
2019-05-22T18:25:54.923Z,17.10
2019-05-22T18:28:23.951Z,17.10
2019-05-22T18:30:53.110Z,17.10
2019-05-22T18:33:22.068Z,17.10
2019-05-22T18:35:51.283Z,17.10
2019-05-22T18:38:20.270Z,17.20
2019-05-22T18:40:49.329Z,17.20
2019-05-22T18:43:22.907Z,17.10
2019-05-22T18:45:50.395Z,16.90
2019-05-22T18:48:19.253Z,16.90
2019-05-22T18:50:48.196Z,16.90
2019-05-22T18:53:17.046Z,16.90
2019-05-22T18:55:45.914Z,16.80
2019-05-22T18:58:14.831Z,16.80
2019-05-22T19:00:43.913Z,16.80
2019-05-22T19:03:13.209Z,16.90
2019-05-22T19:05:43.589Z,16.90
2019-05-22T19:08:12.539Z,16.90
2019-05-22T19:10:41.387Z,16.80
2019-05-22T19:13:14.246Z,16.80
2019-05-22T19:15:41.322Z,16.80
2019-05-22T19:18:10.507Z,16.80
2019-05-22T19:20:39.387Z,16.80
2019-05-22T19:23:08.752Z,16.70
2019-05-22T19:25:37.722Z,16.60
2019-05-22T19:28:06.604Z,16.50
2019-05-22T19:30:36.390Z,16.50
2019-05-22T19:33:05.338Z,16.50
2019-05-22T19:35:34.275Z,16.40
2019-05-22T19:38:03.136Z,16.30
2019-05-22T19:40:32.899Z,16.20
2019-05-22T19:43:02.285Z,16.20
2019-05-22T19:45:31.393Z,16.20
2019-05-22T19:48:01.122Z,16.10
2019-05-22T19:50:31.517Z,16.00
2019-05-22T19:53:17.531Z,15.90
2019-05-22T19:55:32.576Z,15.80
2019-05-22T19:58:01.787Z,15.90
2019-05-22T20:00:31.863Z,15.80
2019-05-22T20:03:01.130Z,15.80
2019-05-22T20:05:30.626Z,15.90
2019-05-22T20:07:59.999Z,15.90
2019-05-22T20:10:28.949Z,15.80
2019-05-22T20:12:57.889Z,15.80
2019-05-22T20:15:28.155Z,15.80
2019-05-22T20:17:57.509Z,15.80
2019-05-22T20:20:27.535Z,15.80
2019-05-22T20:22:56.809Z,15.70
2019-05-22T20:25:25.854Z,15.70
2019-05-22T20:27:57.261Z,15.60
2019-05-22T20:30:26.935Z,15.60
2019-05-22T20:32:56.585Z,15.60
2019-05-22T20:35:26.602Z,15.50
2019-05-22T20:37:55.473Z,15.50
2019-05-22T20:40:25.257Z,15.40
2019-05-22T20:42:54.694Z,15.40
2019-05-22T20:45:25.630Z,15.40
2019-05-22T20:48:12.520Z,15.40
2019-05-22T20:50:43.409Z,15.30
2019-05-22T20:53:14.429Z,15.30
2019-05-22T20:55:43.962Z,15.30
2019-05-22T20:58:14.517Z,15.20
2019-05-22T21:00:43.809Z,15.20
2019-05-22T21:03:13.971Z,15.20
2019-05-22T21:05:43.723Z,15.10
2019-05-22T21:08:15.548Z,15.20
2019-05-22T21:10:47.283Z,15.20
2019-05-22T21:13:17.585Z,15.20
2019-05-22T21:15:48.245Z,15.10
2019-05-22T21:18:19.621Z,15.10
2019-05-22T21:20:55.140Z,15.10
2019-05-22T21:23:24.118Z,15.10
2019-05-22T21:25:53.068Z,15.20
2019-05-22T21:28:22.736Z,15.20
2019-05-22T21:30:54.327Z,15.10
2019-05-22T21:33:24.267Z,15.20
2019-05-22T21:35:55.133Z,15.10
2019-05-22T21:38:24.865Z,15.00
2019-05-22T21:40:56.308Z,14.80
2019-05-22T21:43:25.367Z,14.80
2019-05-22T21:45:54.246Z,14.80
2019-05-22T21:48:23.916Z,14.80
2019-05-22T21:50:52.759Z,14.80
2019-05-22T21:53:22.083Z,14.80
2019-05-22T21:56:03.676Z,14.70
2019-05-22T21:58:21.554Z,14.50
2019-05-22T22:00:56.988Z,14.50
2019-05-22T22:03:29.552Z,14.40
2019-05-22T22:05:59.490Z,14.40
2019-05-22T22:08:29.697Z,14.40
2019-05-22T22:10:59.274Z,14.40
2019-05-22T22:13:29.938Z,14.40
2019-05-22T22:15:59.260Z,14.40
2019-05-22T22:18:28.329Z,14.40
2019-05-22T22:20:58.503Z,14.30
2019-05-22T22:23:28.025Z,14.20
2019-05-22T22:25:57.266Z,14.10
2019-05-22T22:28:26.642Z,14.10
2019-05-22T22:30:57.907Z,14.20
2019-05-22T22:33:29.720Z,14.20
2019-05-22T22:35:59.173Z,14.30
2019-05-22T22:38:28.992Z,14.30
2019-05-22T22:40:57.843Z,14.40
2019-05-22T22:43:30.461Z,14.50
2019-05-22T22:46:06.797Z,14.50
2019-05-22T22:48:37.163Z,14.60
2019-05-22T22:51:09.710Z,14.60
2019-05-22T22:53:39.053Z,14.70
2019-05-22T22:56:10.581Z,14.70
2019-05-22T22:58:39.729Z,14.60
2019-05-22T23:01:13.270Z,14.60
2019-05-22T23:03:43.538Z,14.60
2019-05-22T23:06:14.967Z,14.70
2019-05-22T23:08:45.470Z,14.70
2019-05-22T23:11:16.233Z,14.80
2019-05-22T23:13:46.167Z,14.80
2019-05-22T23:16:16.065Z,14.80
2019-05-22T23:18:48.261Z,14.80
2019-05-22T23:21:17.471Z,14.70
2019-05-22T23:23:46.270Z,14.70
2019-05-22T23:26:16.432Z,14.70
2019-05-22T23:28:45.491Z,14.80
2019-05-22T23:31:15.903Z,15.00
2019-05-22T23:33:45.269Z,15.10
2019-05-22T23:36:15.787Z,15.10
2019-05-22T23:38:45.479Z,15.20
2019-05-22T23:41:15.534Z,15.20
2019-05-22T23:43:45.160Z,15.10
2019-05-22T23:46:15.018Z,15.10
2019-05-22T23:48:45.063Z,14.90
2019-05-22T23:51:14.030Z,14.90
2019-05-22T23:53:42.953Z,14.80
2019-05-22T23:56:11.806Z,14.80
2019-05-22T23:58:52.337Z,14.80
